Time;durP1;ratioP1;P1;durP2;ratioP2;P2;SDS_P1;SDS_P2;PMS_P1;PMS_P2;Temp;Humidity;BMP_temperature;BMP_pressure;BME280_temperature;BME280_humidity;BME280_pressure;Samples;Min_cycle;Max_cycle;Signal;HPM_P1;HPM_P2
2023/03/01 00:02:17;;;;;;;6.93;6.22;;;0.20;81.70;;;;;;5010454;28;20428;-72
2023/03/01 00:04:45;;;;;;;7.50;6.80;;;0.20;81.10;;;;;;5009697;28;21422;-72
2023/03/01 00:07:14;;;;;;;7.55;6.95;;;0.20;81.20;;;;;;4992688;28;20861;-75
2023/03/01 00:09:40;;;;;;;7.82;7.10;;;0.10;83.40;;;;;;4991437;28;20421;-72
2023/03/01 00:12:07;;;;;;;8.25;7.45;;;0.10;83.80;;;;;;4990171;28;20426;-72
2023/03/01 00:14:34;;;;;;;8.70;7.80;;;0.20;84.50;;;;;;5006732;28;20542;-72
2023/03/01 00:17:01;;;;;;;8.10;7.40;;;0.20;85.30;;;;;;5009892;28;20424;-72
2023/03/01 00:19:28;;;;;;;8.50;7.70;;;0.10;85.10;;;;;;5009164;28;20776;-72
2023/03/01 00:21:55;;;;;;;7.60;6.90;;;0.20;84.50;;;;;;5011340;28;20911;-72
2023/03/01 00:24:23;;;;;;;8.40;7.70;;;0.20;84.70;;;;;;5007924;28;20436;-72
2023/03/01 00:26:55;;;;;;;8.63;7.82;;;0.20;84.10;;;;;;5013228;28;20416;-72
2023/03/01 00:29:21;;;;;;;8.20;7.40;;;0.10;83.80;;;;;;5014521;28;20792;-72
2023/03/01 00:31:48;;;;;;;8.32;7.53;;;0.00;85.10;;;;;;5021723;28;20428;-70
2023/03/01 00:34:15;;;;;;;8.10;7.40;;;0.00;87.30;;;;;;5013084;28;20914;-71
2023/03/01 00:36:42;;;;;;;8.10;7.30;;;-0.10;87.70;;;;;;5022960;28;20424;-72
2023/03/01 00:39:13;;;;;;;7.70;7.00;;;-0.10;88.50;;;;;;5015579;28;20416;-72
2023/03/01 00:41:41;;;;;;;8.07;7.28;;;-0.20;89.90;;;;;;5012011;28;20500;-72
2023/03/01 00:44:08;;;;;;;7.78;7.07;;;-0.10;90.00;;;;;;5011035;28;20461;-73
2023/03/01 00:46:34;;;;;;;8.20;7.50;;;-0.10;90.30;;;;;;5012152;28;20420;-70
2023/03/01 00:49:02;;;;;;;7.07;6.47;;;-0.20;90.10;;;;;;5013939;28;20983;-71
2023/03/01 00:51:29;;;;;;;7.70;7.07;;;-0.20;90.80;;;;;;5012319;28;20911;-71
2023/03/01 00:53:58;;;;;;;7.80;7.10;;;-0.20;90.70;;;;;;5013480;28;20467;-69
2023/03/01 00:56:25;;;;;;;7.50;6.90;;;-0.30;90.90;;;;;;5014564;28;20428;-72
2023/03/01 00:58:54;;;;;;;8.02;7.22;;;-0.30;91.10;;;;;;5013224;28;20436;-72
2023/03/01 01:01:23;;;;;;;8.40;7.60;;;-0.30;91.20;;;;;;5011288;28;20472;-73
2023/03/01 01:03:51;;;;;;;7.88;7.28;;;-0.30;91.30;;;;;;5014425;28;20440;-73
2023/03/01 01:06:21;;;;;;;7.43;6.82;;;-0.40;91.50;;;;;;5011952;28;20427;-72
2023/03/01 01:08:49;;;;;;;7.60;6.90;;;-0.30;92.20;;;;;;5011636;28;20578;-69
2023/03/01 01:11:16;;;;;;;7.10;6.50;;;-0.30;92.00;;;;;;5011560;28;20800;-71
2023/03/01 01:13:45;;;;;;;7.80;7.10;;;-0.40;91.30;;;;;;5009070;28;20448;-71
2023/03/01 01:16:13;;;;;;;8.15;7.35;;;-0.40;91.60;;;;;;4997872;28;20433;-72
2023/03/01 01:18:40;;;;;;;7.90;7.20;;;-0.40;91.60;;;;;;5018796;28;20452;-71
2023/03/01 01:21:09;;;;;;;7.47;6.88;;;-0.40;91.90;;;;;;5022964;28;20436;-73
2023/03/01 01:23:37;;;;;;;7.13;6.53;;;-0.30;91.70;;;;;;5021894;28;20448;-72
2023/03/01 01:26:08;;;;;;;8.10;7.10;;;-0.30;91.90;;;;;;5018401;28;20427;-72
2023/03/01 01:28:35;;;;;;;7.18;6.57;;;-0.30;91.70;;;;;;5016476;28;20530;-70
2023/03/01 01:31:02;;;;;;;7.70;7.00;;;-0.30;91.30;;;;;;5017250;28;20444;-72
2023/03/01 01:33:30;;;;;;;7.85;7.15;;;-0.40;91.10;;;;;;5018750;28;20425;-72
2023/03/01 01:35:56;;;;;;;8.43;7.60;;;-0.50;91.70;;;;;;5022133;28;20477;-72
2023/03/01 01:38:23;;;;;;;8.10;7.40;;;-0.50;91.60;;;;;;5023520;28;20523;-69
2023/03/01 01:40:51;;;;;;;7.90;7.30;;;-0.40;91.70;;;;;;5022952;28;20464;-70
2023/03/01 01:43:24;;;;;;;7.82;7.20;;;-0.40;91.30;;;;;;5012535;28;20440;-71
2023/03/01 01:45:55;;;;;;;8.18;7.35;;;-0.50;91.50;;;;;;5010619;28;20572;-70
2023/03/01 01:48:25;;;;;;;7.80;7.00;;;-0.50;91.50;;;;;;5009238;28;20883;-71
2023/03/01 01:50:59;;;;;;;8.80;7.90;;;-0.50;91.40;;;;;;5008955;28;20501;-72
2023/03/01 01:53:28;;;;;;;7.30;6.60;;;-0.50;91.50;;;;;;5007918;28;20915;-71
2023/03/01 01:56:01;;;;;;;7.53;6.93;;;-0.50;90.90;;;;;;5010925;28;20460;-72
2023/03/01 01:58:31;;;;;;;7.70;7.10;;;-0.50;91.30;;;;;;5008240;28;20420;-73
2023/03/01 02:00:58;;;;;;;7.35;6.75;;;-0.50;90.80;;;;;;5009525;28;20423;-70
2023/03/01 02:03:29;;;;;;;7.25;6.55;;;-0.50;90.70;;;;;;5008375;28;20429;-73
2023/03/01 02:06:02;;;;;;;8.57;7.88;;;-0.60;90.70;;;;;;5009354;28;20437;-72
2023/03/01 02:08:31;;;;;;;8.23;7.53;;;-0.60;90.80;;;;;;5010278;28;20793;-72
2023/03/01 02:11:00;;;;;;;8.10;7.30;;;-0.60;90.90;;;;;;5008030;28;20428;-70
2023/03/01 02:13:27;;;;;;;8.25;7.50;;;-0.60;91.00;;;;;;5008018;28;20428;-72
2023/03/01 02:15:54;;;;;;;8.13;7.43;;;-0.70;91.20;;;;;;4991064;28;20509;-71
2023/03/01 02:18:22;;;;;;;8.00;7.20;;;-0.70;91.80;;;;;;4991601;28;20895;-75
2023/03/01 02:21:01;;;;;;;7.60;6.90;;;-0.70;91.80;;;;;;5007212;28;20436;-72
2023/03/01 02:23:29;;;;;;;7.70;7.10;;;-0.70;91.80;;;;;;5009163;28;20420;-73
2023/03/01 02:26:03;;;;;;;8.20;7.40;;;-0.80;91.40;;;;;;5012682;28;20427;-72
2023/03/01 02:28:35;;;;;;;7.97;7.28;;;-0.80;91.30;;;;;;5005788;28;20781;-72
2023/03/01 02:33:49;;;;;;;7.77;7.07;;;-0.80;91.80;;;;;;5009408;28;20455;-72
2023/03/01 02:36:29;;;;;;;8.10;7.37;;;-0.80;91.50;;;;;;5011324;28;20503;-71
2023/03/01 02:38:59;;;;;;;8.10;7.40;;;-0.90;91.40;;;;;;5012093;28;20432;-73
2023/03/01 02:41:28;;;;;;;8.32;7.63;;;-1.00;91.70;;;;;;5012481;28;20871;-71
2023/03/01 02:43:57;;;;;;;8.65;7.95;;;-1.10;92.10;;;;;;5009996;28;20961;-70
2023/03/01 02:46:26;;;;;;;8.93;8.02;;;-1.20;92.10;;;;;;5012277;28;20517;-70
2023/03/01 02:48:55;;;;;;;8.77;7.97;;;-1.20;92.80;;;;;;5011692;28;21016;-70
2023/03/01 02:51:32;;;;;;;8.90;8.10;;;-1.10;92.70;;;;;;5010978;28;20449;-72
2023/03/01 02:54:08;;;;;;;8.45;7.65;;;-1.20;92.50;;;;;;5009910;28;20432;-72
2023/03/01 02:56:36;;;;;;;9.02;8.23;;;-1.20;92.90;;;;;;5011586;28;20432;-73
2023/03/01 02:59:05;;;;;;;8.80;8.00;;;-1.10;92.70;;;;;;5011192;28;20427;-72
2023/03/01 03:01:37;;;;;;;8.27;7.47;;;-1.20;92.70;;;;;;5011196;28;20716;-71
2023/03/01 03:04:05;;;;;;;9.30;8.40;;;-1.20;93.10;;;;;;5021914;23;20856;-71
2023/03/01 03:06:32;;;;;;;8.82;8.02;;;-1.20;93.60;;;;;;5006914;28;20444;-71
2023/03/01 03:08:59;;;;;;;8.75;7.65;;;-1.20;94.00;;;;;;5010608;28;20417;-69
2023/03/01 03:11:25;;;;;;;8.63;7.78;;;-1.30;94.20;;;;;;5011748;28;20424;-72
2023/03/01 03:13:52;;;;;;;8.80;8.00;;;-1.40;94.20;;;;;;5009431;28;21044;-71
2023/03/01 03:16:21;;;;;;;8.20;7.50;;;-1.50;94.20;;;;;;5009807;28;20808;-72
2023/03/01 03:18:48;;;;;;;8.90;8.10;;;-1.40;95.00;;;;;;5009782;28;20429;-69
2023/03/01 03:21:16;;;;;;;8.98;8.18;;;-1.40;94.80;;;;;;5009282;28;20440;-71
2023/03/01 03:23:42;;;;;;;8.98;8.07;;;-1.40;94.70;;;;;;5009482;28;20425;-71
2023/03/01 03:26:14;;;;;;;8.85;8.05;;;-1.30;94.50;;;;;;5009927;28;20440;-71
2023/03/01 03:28:41;;;;;;;9.63;8.50;;;-1.20;94.20;;;;;;5003171;28;20430;-72
2023/03/01 03:31:08;;;;;;;8.52;7.82;;;-1.30;94.10;;;;;;4990220;28;20508;-72
2023/03/01 03:33:37;;;;;;;9.32;8.52;;;-1.30;94.00;;;;;;5004395;28;20432;-71
2023/03/01 03:36:04;;;;;;;8.90;8.10;;;-1.40;93.90;;;;;;5010269;28;20429;-71
2023/03/01 03:38:31;;;;;;;9.10;8.20;;;-1.50;94.40;;;;;;5012481;28;20417;-69
2023/03/01 03:41:03;;;;;;;9.30;8.50;;;-1.50;94.80;;;;;;5012883;28;20412;-70
2023/03/01 03:43:32;;;;;;;9.13;8.25;;;-1.50;94.70;;;;;;5008938;28;20440;-70
2023/03/01 03:45:59;;;;;;;8.90;8.10;;;-1.40;94.80;;;;;;5009074;28;20935;-70
2023/03/01 03:48:27;;;;;;;10.00;9.00;;;-1.50;94.20;;;;;;5020229;28;20488;-72
2023/03/01 03:50:56;;;;;;;9.00;8.20;;;-1.50;94.30;;;;;;5009698;28;20437;-70
2023/03/01 03:53:25;;;;;;;8.77;7.97;;;-1.50;94.10;;;;;;5007996;28;20420;-71
2023/03/01 03:55:52;;;;;;;8.95;8.15;;;-1.60;94.50;;;;;;5009010;28;20436;-72
2023/03/01 03:58:20;;;;;;;9.70;8.80;;;-1.70;94.50;;;;;;5009581;28;20904;-71
2023/03/01 04:00:49;;;;;;;9.40;8.50;;;-1.70;94.60;;;;;;5008861;28;20851;-72
2023/03/01 04:03:18;;;;;;;8.53;7.83;;;-1.60;94.70;;;;;;5008346;28;20421;-71
2023/03/01 04:05:45;;;;;;;9.70;8.80;;;-1.60;94.00;;;;;;5008318;28;20433;-71
2023/03/01 04:08:13;;;;;;;9.00;8.20;;;-1.60;94.10;;;;;;5000516;28;20416;-71
2023/03/01 04:10:43;;;;;;;9.00;8.30;;;-1.70;93.70;;;;;;5008645;28;20440;-71
2023/03/01 04:13:12;;;;;;;8.88;8.18;;;-1.80;94.20;;;;;;5007547;28;21006;-71
2023/03/01 04:15:40;;;;;;;9.40;8.50;;;-1.90;93.90;;;;;;5008786;28;20436;-71
2023/03/01 04:18:08;;;;;;;9.30;8.40;;;-1.90;94.40;;;;;;5008913;28;20412;-72
2023/03/01 04:20:36;;;;;;;9.25;8.35;;;-1.90;94.50;;;;;;5008327;28;20819;-70
2023/03/01 04:23:10;;;;;;;9.77;8.80;;;-2.00;94.70;;;;;;5009212;28;20515;-70
2023/03/01 04:25:40;;;;;;;9.57;8.68;;;-2.00;94.80;;;;;;5008630;28;20426;-72
2023/03/01 04:28:08;;;;;;;9.80;8.90;;;-2.00;95.20;;;;;;5008276;28;20824;-70
2023/03/01 04:30:35;;;;;;;9.60;8.70;;;-2.00;95.00;;;;;;5006517;28;20429;-71
2023/03/01 04:33:04;;;;;;;9.90;8.98;;;-2.00;95.10;;;;;;5007037;28;20421;-71
2023/03/01 04:35:31;;;;;;;9.30;8.40;;;-2.00;95.50;;;;;;5006216;28;20458;-71
2023/03/01 04:37:58;;;;;;;11.15;9.48;;;-2.00;95.30;;;;;;5008625;28;20427;-71
2023/03/01 04:40:24;;;;;;;10.07;9.18;;;-2.00;95.50;;;;;;5007574;28;20795;-71
2023/03/01 04:42:52;;;;;;;9.85;8.90;;;-1.90;95.60;;;;;;5007658;28;20433;-70
2023/03/01 04:45:19;;;;;;;12.23;11.07;;;-1.80;95.30;;;;;;5004087;28;20433;-70
2023/03/01 04:47:47;;;;;;;11.27;10.27;;;-1.80;95.10;;;;;;5008891;28;20791;-70
2023/03/01 04:50:15;;;;;;;10.63;9.63;;;-1.80;95.00;;;;;;5008441;28;20436;-71
2023/03/01 04:52:42;;;;;;;10.40;9.40;;;-1.80;94.70;;;;;;5007851;28;20659;-70
2023/03/01 04:55:11;;;;;;;10.93;9.93;;;-1.80;94.70;;;;;;5008336;28;20433;-71
2023/03/01 04:57:37;;;;;;;10.50;9.60;;;-1.80;94.50;;;;;;5008257;28;20420;-71
2023/03/01 05:00:19;;;;;;;10.30;9.40;;;-1.80;94.40;;;;;;5007599;28;20458;-70
2023/03/01 05:02:48;;;;;;;9.90;9.00;;;-1.80;94.70;;;;;;5007444;28;20416;-71
2023/03/01 05:05:15;;;;;;;10.25;9.25;;;-1.90;94.80;;;;;;5006908;28;20935;-70
2023/03/01 05:07:42;;;;;;;10.53;9.63;;;-1.90;94.90;;;;;;5002999;28;20963;-70
2023/03/01 05:10:10;;;;;;;10.55;9.55;;;-2.00;95.00;;;;;;5001185;28;20954;-72
2023/03/01 05:12:37;;;;;;;10.88;9.88;;;-2.00;96.00;;;;;;4997223;28;20440;-70
2023/03/01 05:15:06;;;;;;;10.80;9.80;;;-1.90;95.80;;;;;;4990618;28;20887;-71
2023/03/01 05:17:33;;;;;;;10.38;9.48;;;-1.90;95.70;;;;;;5003168;28;20433;-70
2023/03/01 05:20:00;;;;;;;10.80;9.70;;;-1.80;95.70;;;;;;5002463;28;20438;-69
2023/03/01 05:22:27;;;;;;;10.70;9.70;;;-1.80;95.30;;;;;;5005927;28;20420;-68
2023/03/01 05:24:54;;;;;;;11.00;10.00;;;-1.70;95.50;;;;;;4998512;28;20489;-68
2023/03/01 05:27:22;;;;;;;12.38;11.18;;;-1.70;95.10;;;;;;4990626;28;20434;-69
2023/03/01 05:29:49;;;;;;;11.43;10.32;;;-1.80;95.00;;;;;;4999559;28;20423;-71
2023/03/01 05:32:17;;;;;;;11.95;10.75;;;-1.90;95.30;;;;;;5003318;28;20413;-69
2023/03/01 05:34:46;;;;;;;11.23;10.23;;;-1.90;95.70;;;;;;5005843;28;20484;-70
2023/03/01 05:37:13;;;;;;;11.60;10.40;;;-1.90;96.00;;;;;;4999192;28;20496;-71
2023/03/01 05:39:41;;;;;;;11.70;10.70;;;-1.90;96.20;;;;;;4998019;28;20446;-71
2023/03/01 05:42:11;;;;;;;11.43;10.05;;;-1.90;96.10;;;;;;4993452;28;20444;-69
2023/03/01 05:44:39;;;;;;;12.13;10.93;;;-1.90;96.00;;;;;;5002565;28;20437;-69
2023/03/01 05:47:06;;;;;;;11.80;10.70;;;-1.90;95.90;;;;;;5003028;28;20449;-71
2023/03/01 05:49:34;;;;;;;11.88;10.57;;;-2.00;95.80;;;;;;5002327;28;20468;-72
2023/03/01 05:52:01;;;;;;;12.18;11.10;;;-2.00;96.00;;;;;;5003948;28;20437;-72
2023/03/01 05:54:28;;;;;;;11.60;10.50;;;-2.00;96.10;;;;;;5000377;28;20481;-71
2023/03/01 05:56:54;;;;;;;11.55;10.35;;;-2.00;96.10;;;;;;5002895;28;20434;-72
2023/03/01 05:59:22;;;;;;;11.52;10.43;;;-2.10;96.30;;;;;;4993524;28;20475;-71
2023/03/01 06:01:49;;;;;;;11.43;10.30;;;-2.10;96.50;;;;;;4998474;28;20417;-71
2023/03/01 06:04:16;;;;;;;11.10;10.10;;;-2.20;96.40;;;;;;4995491;28;20523;-69
2023/03/01 06:06:44;;;;;;;11.80;10.70;;;-2.10;96.80;;;;;;5005070;28;20447;-71
2023/03/01 06:09:11;;;;;;;11.73;10.52;;;-2.10;96.90;;;;;;5010100;28;20427;-71
2023/03/01 06:11:38;;;;;;;12.13;10.93;;;-2.10;96.90;;;;;;5003012;28;20437;-71
2023/03/01 06:14:06;;;;;;;11.60;10.50;;;-2.10;96.70;;;;;;5007461;28;20458;-71
2023/03/01 06:16:33;;;;;;;11.80;10.60;;;-2.00;96.60;;;;;;5004056;28;20948;-71
2023/03/01 06:18:59;;;;;;;12.20;11.10;;;-2.10;96.30;;;;;;5008425;28;20524;-71
2023/03/01 06:21:26;;;;;;;11.60;10.50;;;-2.10;96.40;;;;;;5007940;28;20502;-71
2023/03/01 06:23:54;;;;;;;12.30;11.10;;;-2.10;96.20;;;;;;5001602;28;20796;-71
2023/03/01 06:26:21;;;;;;;11.25;10.25;;;-2.20;96.40;;;;;;5005943;28;20413;-71
2023/03/01 06:28:48;;;;;;;12.10;10.90;;;-2.20;96.60;;;;;;5011528;28;20443;-71
2023/03/01 06:31:15;;;;;;;12.55;11.05;;;-2.20;96.70;;;;;;5005053;28;20426;-71
2023/03/01 06:33:41;;;;;;;12.47;11.17;;;-2.20;96.90;;;;;;5000967;28;21225;-71
2023/03/01 06:36:09;;;;;;;12.48;11.38;;;-2.20;96.90;;;;;;5002074;28;20436;-70
2023/03/01 06:38:36;;;;;;;12.38;11.10;;;-2.10;96.80;;;;;;4990625;28;20513;-71
2023/03/01 06:41:05;;;;;;;12.52;11.40;;;-1.90;96.50;;;;;;5010184;28;20428;-71
2023/03/01 06:43:31;;;;;;;12.00;10.80;;;-1.80;95.60;;;;;;5010279;28;20924;-71
2023/03/01 06:45:58;;;;;;;13.35;12.07;;;-1.70;95.10;;;;;;5003299;28;20414;-71
2023/03/01 06:48:25;;;;;;;12.03;10.90;;;-1.70;94.80;;;;;;5004201;28;20436;-69
2023/03/01 06:50:52;;;;;;;12.10;10.90;;;-1.70;94.90;;;;;;5003957;28;20414;-70
2023/03/01 06:53:18;;;;;;;12.18;11.07;;;-1.70;94.90;;;;;;5008499;28;20451;-72
2023/03/01 06:55:45;;;;;;;12.40;11.10;;;-1.60;94.60;;;;;;5009853;28;20443;-71
2023/03/01 06:58:13;;;;;;;12.75;11.45;;;-1.50;94.10;;;;;;5010225;28;21057;-71
2023/03/01 07:00:40;;;;;;;13.07;11.67;;;-1.50;94.00;;;;;;4992220;28;20430;-70
2023/03/01 07:03:07;;;;;;;12.65;11.43;;;-1.40;93.60;;;;;;5003082;28;20440;-70
2023/03/01 07:05:35;;;;;;;12.77;11.15;;;-1.40;93.70;;;;;;5009328;28;20423;-71
2023/03/01 07:08:02;;;;;;;12.48;11.27;;;-1.40;93.70;;;;;;5007622;28;20433;-70
2023/03/01 07:10:29;;;;;;;12.00;10.90;;;-1.20;93.40;;;;;;5008393;28;20448;-70
2023/03/01 07:12:56;;;;;;;12.80;11.50;;;-1.20;93.40;;;;;;5005544;28;20879;-69
2023/03/01 07:15:25;;;;;;;12.82;11.73;;;-1.10;92.70;;;;;;5005368;28;20436;-71
2023/03/01 07:17:52;;;;;;;13.15;11.88;;;-1.10;92.70;;;;;;4995694;28;20444;-71
2023/03/01 07:20:22;;;;;;;12.90;11.60;;;-1.00;92.70;;;;;;5001681;28;20426;-71
2023/03/01 07:22:48;;;;;;;12.20;11.10;;;-0.90;92.00;;;;;;4994136;28;20521;-69
2023/03/01 07:25:15;;;;;;;12.90;11.70;;;-0.80;91.80;;;;;;5009108;28;20441;-70
2023/03/01 07:27:42;;;;;;;13.80;12.38;;;-0.70;91.30;;;;;;5009703;28;20425;-71
2023/03/01 07:30:10;;;;;;;13.13;11.93;;;-0.70;90.90;;;;;;5009468;28;20420;-71
2023/03/01 07:32:38;;;;;;;13.57;12.38;;;-0.50;90.30;;;;;;4995934;28;20426;-72
2023/03/01 07:35:06;;;;;;;13.07;11.98;;;-0.50;89.80;;;;;;5007039;28;20792;-70
2023/03/01 07:37:33;;;;;;;13.70;12.40;;;-0.40;89.30;;;;;;4995830;28;20418;-70
2023/03/01 07:39:59;;;;;;;14.10;12.18;;;-0.30;88.20;;;;;;4989416;28;20855;-70
2023/03/01 07:42:26;;;;;;;12.57;11.25;;;-0.20;87.30;;;;;;4995244;28;21023;-71
2023/03/01 07:44:53;;;;;;;15.82;13.80;;;-0.10;86.50;;;;;;5002918;28;20423;-70
2023/03/01 07:47:20;;;;;;;13.88;12.48;;;0.00;86.10;;;;;;4996885;28;20415;-71
2023/03/01 07:49:48;;;;;;;18.70;13.00;;;0.20;84.30;;;;;;4993434;28;20445;-71
2023/03/01 07:52:14;;;;;;;13.30;11.90;;;0.30;83.90;;;;;;4998950;28;20447;-71
2023/03/01 07:54:43;;;;;;;14.88;13.38;;;0.40;82.60;;;;;;4996914;28;20725;-71
2023/03/01 07:57:10;;;;;;;14.07;12.68;;;0.50;82.50;;;;;;4994385;28;20453;-70
2023/03/01 07:59:37;;;;;;;13.20;11.90;;;0.70;80.90;;;;;;4997830;28;20448;-70
2023/03/01 08:02:04;;;;;;;13.10;11.90;;;0.90;78.90;;;;;;5001266;28;20991;-69
2023/03/01 08:04:31;;;;;;;13.27;11.98;;;1.10;77.10;;;;;;4999084;28;20436;-69
2023/03/01 08:06:59;;;;;;;12.63;11.50;;;1.20;75.50;;;;;;5006005;28;20444;-70
2023/03/01 08:09:26;;;;;;;14.90;13.30;;;1.40;74.70;;;;;;4988710;28;20433;-70
2023/03/01 08:11:54;;;;;;;13.52;12.20;;;1.50;74.40;;;;;;5003058;28;21421;-69
2023/03/01 08:14:20;;;;;;;13.80;12.50;;;1.70;73.20;;;;;;4998786;28;20488;-70
2023/03/01 08:16:50;;;;;;;13.70;12.50;;;1.90;72.30;;;;;;5003998;28;20436;-71
2023/03/01 08:19:17;;;;;;;14.02;12.82;;;2.10;71.60;;;;;;5007804;28;20436;-71
2023/03/01 08:21:44;;;;;;;13.70;12.40;;;2.30;70.80;;;;;;5004762;28;20434;-69
2023/03/01 08:24:12;;;;;;;13.77;12.37;;;2.50;69.80;;;;;;5002803;28;20430;-68
2023/03/01 08:26:39;;;;;;;12.80;11.70;;;2.70;68.70;;;;;;5014590;28;20429;-70
2023/03/01 08:29:06;;;;;;;13.90;12.60;;;2.90;67.40;;;;;;4998971;28;20426;-71
2023/03/01 08:31:36;;;;;;;13.55;12.30;;;3.10;65.40;;;;;;4990508;28;20419;-71
2023/03/01 08:34:05;;;;;;;13.90;12.70;;;3.20;64.60;;;;;;5001942;28;20512;-70
2023/03/01 08:36:35;;;;;;;13.73;12.43;;;3.30;64.00;;;;;;5002497;28;20433;-72
2023/03/01 08:39:03;;;;;;;14.05;12.65;;;3.50;63.10;;;;;;5004631;28;20424;-73
2023/03/01 08:41:31;;;;;;;12.55;11.45;;;3.70;62.60;;;;;;4989081;28;20426;-71
2023/03/01 08:43:59;;;;;;;13.00;11.80;;;3.90;60.90;;;;;;4985622;28;20422;-71
2023/03/01 08:46:26;;;;;;;13.68;12.40;;;4.00;60.20;;;;;;4990642;28;20418;-70
2023/03/01 08:48:53;;;;;;;12.95;11.85;;;4.20;59.60;;;;;;5004838;28;20843;-69
2023/03/01 08:51:22;;;;;;;12.95;11.75;;;4.40;58.40;;;;;;5006004;28;20452;-71
2023/03/01 08:53:49;;;;;;;12.60;11.50;;;4.60;58.40;;;;;;4992921;28;20430;-71
2023/03/01 08:56:18;;;;;;;12.80;11.60;;;4.80;57.10;;;;;;4988493;28;20427;-68
2023/03/01 08:58:47;;;;;;;12.95;11.80;;;5.00;57.30;;;;;;4989852;28;20915;-71
2023/03/01 09:01:16;;;;;;;12.90;11.77;;;5.20;56.80;;;;;;4995697;28;20432;-70
2023/03/01 09:03:43;;;;;;;12.32;11.25;;;5.40;55.70;;;;;;4993223;28;20563;-69
2023/03/01 09:06:11;;;;;;;12.40;11.30;;;5.50;54.10;;;;;;5028223;23;20464;-76
2023/03/01 09:08:40;;;;;;;11.90;10.90;;;5.70;54.30;;;;;;5008220;28;20449;-75
2023/03/01 09:11:09;;;;;;;11.82;10.73;;;5.90;53.50;;;;;;5009793;28;20465;-75
2023/03/01 09:13:36;;;;;;;12.60;11.50;;;6.00;52.70;;;;;;5008394;28;20440;-75
2023/03/01 09:16:07;;;;;;;12.10;11.10;;;6.10;52.40;;;;;;5006506;28;20433;-75
2023/03/01 09:18:34;;;;;;;12.13;11.00;;;6.40;52.20;;;;;;5005711;28;20445;-74
2023/03/01 09:21:06;;;;;;;12.65;11.45;;;6.50;51.20;;;;;;5001465;28;20433;-76
2023/03/01 09:23:34;;;;;;;10.98;9.98;;;6.50;50.10;;;;;;4998955;28;20446;-74
2023/03/01 09:26:00;;;;;;;11.40;10.40;;;6.60;50.50;;;;;;5005334;28;20429;-74
2023/03/01 09:28:27;;;;;;;11.88;10.80;;;6.80;50.10;;;;;;4999483;28;20422;-75
2023/03/01 09:30:54;;;;;;;12.07;10.98;;;7.00;50.20;;;;;;4988488;28;20421;-75
2023/03/01 09:33:22;;;;;;;13.10;11.90;;;7.10;49.00;;;;;;4988253;28;20846;-75
2023/03/01 09:35:49;;;;;;;12.95;11.65;;;7.40;48.40;;;;;;5003898;28;20435;-74
2023/03/01 09:38:16;;;;;;;12.50;11.30;;;7.50;48.60;;;;;;4997250;28;20576;-75
2023/03/01 09:40:46;;;;;;;11.20;10.20;;;7.80;48.00;;;;;;5001766;28;20475;-75
2023/03/01 09:43:20;;;;;;;11.13;10.13;;;8.00;46.70;;;;;;4991305;28;20422;-74
2023/03/01 09:45:49;;;;;;;10.60;9.60;;;8.20;46.10;;;;;;5006776;28;20427;-75
2023/03/01 09:48:18;;;;;;;11.13;10.13;;;8.30;45.70;;;;;;5004465;28;20471;-75
2023/03/01 09:50:47;;;;;;;10.15;9.35;;;8.30;44.50;;;;;;5009790;28;20425;-75
2023/03/01 09:53:17;;;;;;;10.68;9.70;;;8.30;44.30;;;;;;5021240;28;20419;-74
2023/03/01 09:55:46;;;;;;;11.23;10.33;;;8.40;45.10;;;;;;5030412;28;20434;-75
2023/03/01 09:58:32;;;;;;;11.90;10.25;;;8.50;44.90;;;;;;5017451;28;20440;-75
2023/03/01 10:01:03;;;;;;;10.63;9.63;;;8.90;44.00;;;;;;5002027;28;20436;-75
2023/03/01 10:03:37;;;;;;;10.93;9.93;;;8.90;42.80;;;;;;5012513;28;20466;-75
2023/03/01 10:06:11;;;;;;;11.20;10.20;;;9.00;42.40;;;;;;5011339;28;20799;-75
2023/03/01 10:08:43;;;;;;;10.40;9.50;;;9.00;42.60;;;;;;5009611;28;20422;-75
2023/03/01 10:11:21;;;;;;;10.00;9.10;;;8.70;42.50;;;;;;4994976;28;20800;-75
2023/03/01 10:13:52;;;;;;;10.20;9.30;;;8.80;42.90;;;;;;4997744;28;20450;-77
2023/03/01 10:16:26;;;;;;;10.37;9.40;;;8.80;42.50;;;;;;5010876;28;20432;-74
2023/03/01 10:18:59;;;;;;;10.98;9.98;;;9.00;42.30;;;;;;4993427;28;20430;-76
2023/03/01 10:21:31;;;;;;;10.40;9.45;;;8.90;41.80;;;;;;4998772;28;20432;-74
2023/03/01 10:24:06;;;;;;;10.00;9.10;;;9.00;42.30;;;;;;5010149;28;20431;-75
2023/03/01 10:26:45;;;;;;;10.55;9.65;;;9.20;41.70;;;;;;5013166;28;20432;-75
2023/03/01 10:29:13;;;;;;;10.27;9.40;;;9.40;41.50;;;;;;5010020;28;20441;-75
2023/03/01 10:31:43;;;;;;;11.60;10.40;;;9.70;41.00;;;;;;5021844;28;20413;-74
2023/03/01 10:34:17;;;;;;;10.90;9.90;;;9.90;40.60;;;;;;5028959;28;20431;-74
2023/03/01 10:36:48;;;;;;;10.10;9.20;;;10.10;39.80;;;;;;5019305;28;20433;-74
2023/03/01 10:39:17;;;;;;;10.68;9.77;;;10.10;40.00;;;;;;5026054;28;20436;-74
2023/03/01 10:42:03;;;;;;;10.10;9.20;;;10.30;39.30;;;;;;5019571;28;20429;-75
2023/03/01 10:44:40;;;;;;;10.90;9.90;;;10.40;38.80;;;;;;5024409;28;20421;-74
2023/03/01 10:47:17;;;;;;;11.10;10.00;;;10.40;38.90;;;;;;4999880;28;20422;-75
2023/03/01 10:50:01;;;;;;;10.85;9.85;;;10.30;39.00;;;;;;5007420;28;20445;-75
2023/03/01 10:52:35;;;;;;;11.77;10.57;;;10.30;39.00;;;;;;5000550;28;20725;-75
2023/03/01 10:55:19;;;;;;;10.53;9.63;;;10.20;38.40;;;;;;5009741;28;20419;-75
2023/03/01 10:57:45;;;;;;;10.25;9.35;;;10.30;38.00;;;;;;4994210;28;20430;-75
2023/03/01 11:00:23;;;;;;;11.00;10.10;;;10.40;38.20;;;;;;5008085;28;20784;-75
2023/03/01 11:03:02;;;;;;;10.75;9.75;;;10.60;37.70;;;;;;5007596;28;20422;-75
2023/03/01 11:05:30;;;;;;;10.90;9.90;;;10.70;37.10;;;;;;5010877;28;20416;-75
2023/03/01 11:07:59;;;;;;;10.23;9.43;;;10.70;37.80;;;;;;5008251;28;20473;-75
2023/03/01 11:10:28;;;;;;;10.77;9.73;;;10.90;37.80;;;;;;5010738;28;20428;-75
2023/03/01 11:13:07;;;;;;;10.85;9.85;;;11.20;36.80;;;;;;5004764;28;20452;-75
2023/03/01 11:15:34;;;;;;;10.65;9.75;;;11.40;37.00;;;;;;5012556;28;20678;-75
2023/03/01 11:18:02;;;;;;;11.25;10.25;;;11.60;36.70;;;;;;5002876;28;20786;-75
2023/03/01 11:20:33;;;;;;;10.35;9.45;;;11.70;36.50;;;;;;5008652;28;20777;-75
2023/03/01 11:23:05;;;;;;;11.35;10.35;;;11.90;36.00;;;;;;5007799;28;20860;-75
2023/03/01 11:25:36;;;;;;;10.70;9.80;;;11.80;36.10;;;;;;5005971;28;20521;-75
2023/03/01 11:28:05;;;;;;;9.80;9.00;;;12.00;35.20;;;;;;5006929;28;20551;-75
2023/03/01 11:30:36;;;;;;;10.40;9.40;;;12.20;35.00;;;;;;4990695;28;20808;-75
2023/03/01 11:33:13;;;;;;;10.05;9.25;;;12.50;34.60;;;;;;5001070;28;20846;-75
2023/03/01 11:35:48;;;;;;;9.73;9.02;;;12.70;34.10;;;;;;5003802;28;20432;-75
2023/03/01 11:38:22;;;;;;;10.18;9.38;;;13.00;33.20;;;;;;5003914;28;20509;-75
2023/03/01 11:40:53;;;;;;;10.90;10.00;;;13.10;33.10;;;;;;5005576;28;20834;-75
2023/03/01 11:43:27;;;;;;;10.13;9.32;;;13.30;33.40;;;;;;5006941;28;20424;-75
2023/03/01 11:46:14;;;;;;;10.40;9.60;;;13.60;33.70;;;;;;4997569;28;20418;-75
2023/03/01 11:48:51;;;;;;;10.55;9.55;;;13.90;32.40;;;;;;4996985;28;20416;-76
2023/03/01 11:51:25;;;;;;;10.05;9.23;;;14.20;32.50;;;;;;4997131;28;20426;-76
2023/03/01 11:54:07;;;;;;;9.70;8.83;;;14.70;31.40;;;;;;5004730;28;20440;-75
2023/03/01 11:56:39;;;;;;;8.93;8.23;;;15.10;30.50;;;;;;4994433;28;20421;-75
2023/03/01 11:59:41;;;;;;;10.77;9.77;;;15.20;30.60;;;;;;4994543;28;20426;-75
2023/03/01 12:02:38;;;;;;;9.93;9.13;;;15.30;30.10;;;;;;5006562;28;20489;-75
2023/03/01 12:05:47;;;;;;;9.77;9.05;;;15.90;29.80;;;;;;5005285;28;20421;-76
2023/03/01 12:08:18;;;;;;;9.57;8.77;;;16.30;29.30;;;;;;4990718;28;20432;-76
2023/03/01 12:10:56;;;;;;;9.23;8.35;;;16.20;28.60;;;;;;5005843;28;20514;-76
2023/03/01 12:13:56;;;;;;;10.73;8.65;;;16.40;29.10;;;;;;5004545;28;20452;-76
2023/03/01 12:16:48;;;;;;;9.68;8.77;;;16.90;28.60;;;;;;4987400;28;20421;-76
2023/03/01 12:19:31;;;;;;;9.13;8.32;;;16.80;28.80;;;;;;4992862;28;20566;-75
2023/03/01 12:22:18;;;;;;;9.10;8.40;;;17.60;28.70;;;;;;4998477;28;20470;-76
2023/03/01 12:24:59;;;;;;;9.20;8.40;;;18.10;27.90;;;;;;5008173;28;20417;-75
2023/03/01 12:27:49;;;;;;;9.50;8.70;;;19.10;27.10;;;;;;4993644;28;20932;-76
2023/03/01 12:30:26;;;;;;;8.93;8.23;;;19.70;26.30;;;;;;4988442;28;20415;-76
2023/03/01 12:33:06;;;;;;;9.40;8.60;;;19.90;26.30;;;;;;4987865;28;20440;-76
2023/03/01 12:35:45;;;;;;;9.18;8.38;;;20.20;26.00;;;;;;4998494;28;20875;-76
2023/03/01 12:38:25;;;;;;;8.70;8.10;;;20.80;25.50;;;;;;5001653;28;20435;-76
2023/03/01 12:41:15;;;;;;;9.30;8.50;;;21.50;24.40;;;;;;5002720;28;20432;-76
2023/03/01 12:43:59;;;;;;;7.95;7.25;;;21.90;24.60;;;;;;4995939;28;20420;-76
2023/03/01 12:46:37;;;;;;;8.30;7.70;;;21.90;24.20;;;;;;5001955;28;20431;-76
2023/03/01 12:49:10;;;;;;;8.43;7.63;;;22.60;24.50;;;;;;4999611;28;20409;-75
2023/03/01 12:51:40;;;;;;;8.35;7.65;;;23.20;23.40;;;;;;5003297;28;20445;-76
2023/03/01 12:54:15;;;;;;;8.45;7.85;;;23.70;23.30;;;;;;5002347;28;20452;-76
2023/03/01 12:56:51;;;;;;;7.93;7.32;;;24.30;22.40;;;;;;5001797;28;20424;-76
2023/03/01 12:59:27;;;;;;;7.93;7.32;;;24.10;22.30;;;;;;4994089;28;20396;-76